Time;durP1;ratioP1;P1;durP2;ratioP2;P2;SDS_P1;SDS_P2;PMS_P1;PMS_P2;Temp;Humidity;BMP_temperature;BMP_pressure;BME280_temperature;BME280_humidity;BME280_pressure;Samples;Min_cycle;Max_cycle;Signal;HPM_P1;HPM_P2
2023/11/23 00:00:11;;;;;;;24.52;9.77;;;;;;;;;;5069086;28;20553;-81
2023/11/23 00:02:36;;;;;;;21.45;8.45;;;;;;;;;;5071632;28;20047;-80
2023/11/23 00:05:02;;;;;;;22.05;8.73;;;;;;;;;;5061172;28;20456;-80
2023/11/23 00:07:27;;;;;;;27.70;10.25;;;;;;;;;;5054600;28;20579;-80
2023/11/23 00:09:52;;;;;;;21.42;7.57;;;;;;;;;;5071725;28;20027;-80
2023/11/23 00:12:18;;;;;;;19.90;7.63;;;;;;;;;;5071502;28;20028;-80
2023/11/23 00:14:43;;;;;;;24.20;8.98;;;;;;;;;;5057377;28;20508;-80
2023/11/23 00:17:09;;;;;;;23.63;8.50;;;;;;;;;;5063932;28;20024;-81
2023/11/23 00:19:34;;;;;;;20.48;8.60;;;;;;;;;;5056631;28;20031;-79
2023/11/23 00:21:59;;;;;;;20.20;8.13;;;;;;;;;;5062065;28;20051;-80
2023/11/23 00:24:24;;;;;;;21.23;8.68;;;;;;;;;;5057190;28;20056;-80
2023/11/23 00:26:51;;;;;;;26.00;8.82;;;;;;;;;;5071556;28;20091;-80
2023/11/23 00:29:16;;;;;;;16.85;8.38;;;;;;;;;;5068995;28;20024;-80
2023/11/23 00:31:41;;;;;;;19.08;8.30;;;;;;;;;;5057112;28;20020;-80
2023/11/23 00:34:07;;;;;;;19.98;9.13;;;;;;;;;;5071226;28;20021;-80
2023/11/23 00:36:32;;;;;;;17.33;7.63;;;;;;;;;;5071038;28;20082;-79
2023/11/23 00:38:57;;;;;;;21.23;7.55;;;;;;;;;;5071064;28;20020;-80
2023/11/23 00:41:23;;;;;;;22.00;8.35;;;;;;;;;;5071158;28;20021;-80
2023/11/23 00:43:48;;;;;;;21.27;8.30;;;;;;;;;;5063668;28;20013;-80
2023/11/23 00:46:13;;;;;;;18.45;7.90;;;;;;;;;;5071362;28;20494;-80
2023/11/23 00:48:38;;;;;;;23.35;8.38;;;;;;;;;;5070944;28;20368;-79
2023/11/23 00:51:04;;;;;;;20.70;8.90;;;;;;;;;;5072428;28;20582;-80
2023/11/23 00:53:29;;;;;;;19.35;8.40;;;;;;;;;;5057023;28;20017;-80
2023/11/23 00:55:57;;;;;;;17.08;6.95;;;;;;;;;;5065029;28;20047;-80
2023/11/23 00:58:22;;;;;;;22.73;8.40;;;;;;;;;;5053213;28;20445;-80
2023/11/23 01:00:48;;;;;;;19.85;8.73;;;;;;;;;;5054676;28;20044;-80
2023/11/23 01:03:13;;;;;;;21.35;8.70;;;;;;;;;;5070900;28;20421;-80
2023/11/23 01:05:38;;;;;;;19.42;7.47;;;;;;;;;;5070752;28;20101;-80
2023/11/23 01:08:04;;;;;;;24.10;9.63;;;;;;;;;;5071278;28;20512;-80
2023/11/23 01:10:29;;;;;;;23.08;8.93;;;;;;;;;;5072137;28;20154;-80
2023/11/23 01:12:54;;;;;;;18.77;8.40;;;;;;;;;;5071553;28;20050;-80
2023/11/23 01:15:20;;;;;;;21.10;7.82;;;;;;;;;;5072101;28;20035;-80
2023/11/23 01:17:45;;;;;;;20.00;8.60;;;;;;;;;;5070483;28;20109;-80
2023/11/23 01:20:10;;;;;;;21.65;8.88;;;;;;;;;;5065287;28;20043;-80
2023/11/23 01:22:36;;;;;;;19.33;8.32;;;;;;;;;;5066269;28;20016;-80
2023/11/23 01:25:02;;;;;;;19.77;8.73;;;;;;;;;;5072061;28;20074;-80
2023/11/23 01:27:27;;;;;;;20.60;8.18;;;;;;;;;;5066224;28;20414;-80
2023/11/23 01:29:52;;;;;;;20.73;8.15;;;;;;;;;;5069924;28;20051;-80
2023/11/23 01:32:17;;;;;;;21.00;8.02;;;;;;;;;;5063121;28;20020;-80
2023/11/23 01:34:43;;;;;;;21.55;8.88;;;;;;;;;;5051942;28;20434;-79
2023/11/23 01:37:08;;;;;;;21.58;9.20;;;;;;;;;;5064457;28;20040;-80
2023/11/23 01:39:33;;;;;;;24.05;8.77;;;;;;;;;;5050603;28;20036;-80
2023/11/23 01:41:59;;;;;;;20.73;8.77;;;;;;;;;;5065158;28;20069;-80
2023/11/23 01:44:24;;;;;;;22.17;8.63;;;;;;;;;;5059681;28;20429;-80
2023/11/23 01:46:49;;;;;;;24.60;8.88;;;;;;;;;;5069383;28;20348;-80
2023/11/23 01:49:17;;;;;;;25.67;9.23;;;;;;;;;;5057474;28;20016;-80
2023/11/23 01:51:42;;;;;;;24.45;8.10;;;;;;;;;;5070649;28;20065;-80
2023/11/23 01:54:07;;;;;;;19.38;7.95;;;;;;;;;;5056232;28;20107;-80
2023/11/23 01:56:33;;;;;;;20.23;8.57;;;;;;;;;;5071494;28;20024;-81
2023/11/23 01:58:58;;;;;;;31.30;10.82;;;;;;;;;;5057141;28;20031;-80
2023/11/23 02:01:23;;;;;;;25.05;9.60;;;;;;;;;;5074322;28;20538;-80
2023/11/23 02:03:48;;;;;;;18.58;7.75;;;;;;;;;;5075292;28;20027;-79
2023/11/23 02:06:14;;;;;;;21.20;9.27;;;;;;;;;;5068605;28;20009;-81
2023/11/23 02:08:39;;;;;;;20.27;9.05;;;;;;;;;;5054076;28;20029;-80
2023/11/23 02:11:05;;;;;;;21.95;10.20;;;;;;;;;;5073867;28;20109;-80
2023/11/23 02:13:33;;;;;;;23.45;9.27;;;;;;;;;;5064823;28;20495;-80
2023/11/23 02:15:59;;;;;;;24.77;9.35;;;;;;;;;;5059774;28;20333;-80
2023/11/23 02:18:25;;;;;;;24.30;9.43;;;;;;;;;;5073775;28;20025;-80
2023/11/23 02:20:50;;;;;;;26.63;10.93;;;;;;;;;;5063482;28;20170;-79
2023/11/23 02:23:16;;;;;;;24.45;10.13;;;;;;;;;;5075062;28;20032;-80
2023/11/23 02:25:42;;;;;;;20.42;9.15;;;;;;;;;;5060786;28;20025;-80
2023/11/23 02:28:08;;;;;;;24.35;9.55;;;;;;;;;;5055018;28;20025;-81
2023/11/23 02:30:33;;;;;;;21.40;8.80;;;;;;;;;;5054781;28;20457;-80
2023/11/23 02:33:01;;;;;;;24.70;10.07;;;;;;;;;;5053526;28;20408;-80
2023/11/23 02:35:26;;;;;;;24.98;10.98;;;;;;;;;;5053309;28;20025;-80
2023/11/23 02:37:52;;;;;;;24.00;10.95;;;;;;;;;;5053253;28;20091;-80
2023/11/23 02:40:17;;;;;;;26.30;10.85;;;;;;;;;;5054606;28;20044;-79
2023/11/23 02:42:43;;;;;;;22.48;10.77;;;;;;;;;;5053284;28;20456;-80
2023/11/23 02:45:08;;;;;;;26.13;11.98;;;;;;;;;;5053475;28;20035;-80
2023/11/23 02:47:34;;;;;;;24.60;11.15;;;;;;;;;;5067101;28;20107;-80
2023/11/23 02:49:59;;;;;;;27.08;11.70;;;;;;;;;;5054605;28;20017;-80
2023/11/23 02:52:24;;;;;;;25.02;10.13;;;;;;;;;;5053207;28;20020;-80
2023/11/23 02:54:50;;;;;;;26.73;11.48;;;;;;;;;;5053032;28;20038;-80
2023/11/23 02:57:15;;;;;;;27.70;11.60;;;;;;;;;;5052847;28;20029;-80
2023/11/23 02:59:40;;;;;;;29.23;11.23;;;;;;;;;;5053392;28;20017;-80
2023/11/23 03:02:05;;;;;;;25.48;9.50;;;;;;;;;;5052953;28;20108;-80
2023/11/23 03:04:31;;;;;;;30.85;11.05;;;;;;;;;;5052779;28;20033;-80
2023/11/23 03:06:56;;;;;;;27.83;11.27;;;;;;;;;;5052781;28;20021;-80
2023/11/23 03:09:23;;;;;;;25.25;10.95;;;;;;;;;;5052545;28;20032;-80
2023/11/23 03:11:48;;;;;;;30.60;13.05;;;;;;;;;;5053987;28;20025;-80
2023/11/23 03:14:13;;;;;;;25.10;11.02;;;;;;;;;;5052872;28;20495;-80
2023/11/23 03:16:38;;;;;;;26.05;11.90;;;;;;;;;;5052707;28;20017;-80
2023/11/23 03:19:03;;;;;;;27.00;10.88;;;;;;;;;;5046648;28;20056;-80
2023/11/23 03:21:29;;;;;;;23.92;11.15;;;;;;;;;;5061870;28;20028;-80
2023/11/23 03:23:54;;;;;;;25.80;11.93;;;;;;;;;;5066632;28;20042;-80
2023/11/23 03:26:22;;;;;;;25.27;10.35;;;;;;;;;;5072556;28;20087;-80
2023/11/23 03:28:47;;;;;;;24.13;10.15;;;;;;;;;;5070308;28;20063;-80
2023/11/23 03:31:13;;;;;;;28.73;11.48;;;;;;;;;;5060662;28;20049;-80
2023/11/23 03:33:38;;;;;;;24.40;10.32;;;;;;;;;;5072352;28;20040;-80
2023/11/23 03:36:03;;;;;;;27.13;11.18;;;;;;;;;;5059544;28;20020;-80
2023/11/23 03:38:28;;;;;;;27.45;12.30;;;;;;;;;;5055606;28;20021;-80
2023/11/23 03:40:54;;;;;;;25.77;11.20;;;;;;;;;;5053586;28;20475;-80
2023/11/23 03:43:19;;;;;;;20.63;9.27;;;;;;;;;;5052061;28;20103;-80
2023/11/23 03:45:44;;;;;;;26.15;10.70;;;;;;;;;;5047493;28;20457;-80
2023/11/23 03:48:09;;;;;;;21.20;9.13;;;;;;;;;;5044193;28;20076;-80
2023/11/23 03:50:35;;;;;;;22.98;11.55;;;;;;;;;;5053325;28;20045;-80
2023/11/23 03:53:00;;;;;;;25.65;11.10;;;;;;;;;;5053520;28;20203;-80
2023/11/23 03:55:25;;;;;;;22.50;10.05;;;;;;;;;;5052087;28;20112;-80
2023/11/23 03:57:50;;;;;;;25.67;10.23;;;;;;;;;;5051859;28;20039;-80
2023/11/23 04:00:16;;;;;;;26.00;10.88;;;;;;;;;;5051917;28;20467;-80
2023/11/23 04:02:46;;;;;;;24.85;9.60;;;;;;;;;;5051759;28;20045;-80
2023/11/23 04:05:14;;;;;;;25.88;10.05;;;;;;;;;;5051784;28;20035;-80
2023/11/23 04:07:39;;;;;;;22.58;9.35;;;;;;;;;;5051425;28;20028;-80
2023/11/23 04:10:06;;;;;;;16.92;8.73;;;;;;;;;;5051604;28;20364;-80
2023/11/23 04:12:32;;;;;;;21.63;8.88;;;;;;;;;;5085185;28;20458;-80
2023/11/23 04:14:57;;;;;;;17.30;8.35;;;;;;;;;;5051600;28;20021;-80
2023/11/23 04:17:22;;;;;;;21.45;10.10;;;;;;;;;;5051324;28;20092;-80
2023/11/23 04:19:48;;;;;;;20.25;8.25;;;;;;;;;;5051939;28;20029;-79
2023/11/23 04:22:13;;;;;;;21.98;9.75;;;;;;;;;;5051200;28;20376;-80
2023/11/23 04:24:39;;;;;;;19.08;9.65;;;;;;;;;;5052699;28;20017;-80
2023/11/23 04:27:05;;;;;;;16.67;8.50;;;;;;;;;;5051273;28;20033;-81
2023/11/23 04:29:30;;;;;;;23.13;8.98;;;;;;;;;;5052662;28;20032;-80
2023/11/23 04:31:55;;;;;;;22.10;10.00;;;;;;;;;;5051336;28;20017;-80
2023/11/23 04:34:21;;;;;;;24.05;10.10;;;;;;;;;;5037177;28;20018;-79
2023/11/23 04:36:47;;;;;;;20.60;8.60;;;;;;;;;;5050850;28;20051;-80
2023/11/23 04:39:12;;;;;;;19.60;8.68;;;;;;;;;;5084845;28;20480;-80
2023/11/23 04:41:38;;;;;;;22.02;9.00;;;;;;;;;;5051011;28;20028;-79
2023/11/23 04:44:03;;;;;;;18.55;9.40;;;;;;;;;;5051075;28;20468;-80
2023/11/23 04:46:29;;;;;;;19.55;8.60;;;;;;;;;;5039041;28;20108;-80
2023/11/23 04:48:54;;;;;;;21.25;9.15;;;;;;;;;;5049142;28;20024;-80
2023/11/23 04:51:19;;;;;;;21.90;7.55;;;;;;;;;;5050924;28;20079;-80
2023/11/23 04:53:44;;;;;;;20.10;8.65;;;;;;;;;;5050809;28;20115;-80
2023/11/23 04:56:11;;;;;;;22.70;8.25;;;;;;;;;;5051016;28;20048;-80
2023/11/23 04:58:36;;;;;;;18.80;8.60;;;;;;;;;;5050900;28;20048;-80
2023/11/23 05:01:01;;;;;;;17.95;8.57;;;;;;;;;;5050588;28;20361;-80
2023/11/23 05:03:30;;;;;;;21.85;8.30;;;;;;;;;;5050970;28;20021;-80
2023/11/23 05:05:55;;;;;;;19.98;9.43;;;;;;;;;;5050751;28;20063;-80
2023/11/23 05:08:24;;;;;;;21.13;8.68;;;;;;;;;;5050684;28;20024;-80
2023/11/23 05:10:49;;;;;;;18.58;8.45;;;;;;;;;;5050666;28;20105;-80
2023/11/23 05:13:15;;;;;;;20.30;7.82;;;;;;;;;;5052125;28;20024;-80
2023/11/23 05:15:40;;;;;;;20.88;8.02;;;;;;;;;;5051924;28;20051;-79
2023/11/23 05:18:05;;;;;;;22.10;9.43;;;;;;;;;;5050627;28;20021;-80
2023/11/23 05:20:31;;;;;;;18.27;7.55;;;;;;;;;;5050185;28;20032;-80
2023/11/23 05:22:56;;;;;;;18.38;8.98;;;;;;;;;;5050609;28;20090;-80
2023/11/23 05:25:21;;;;;;;20.92;8.25;;;;;;;;;;5051147;28;20009;-80
2023/11/23 05:27:46;;;;;;;18.48;8.20;;;;;;;;;;5050519;28;20021;-80
2023/11/23 05:30:12;;;;;;;18.40;7.88;;;;;;;;;;5052503;28;20021;-80
2023/11/23 05:32:37;;;;;;;17.67;8.00;;;;;;;;;;5054631;28;20028;-80
2023/11/23 05:35:03;;;;;;;21.10;8.43;;;;;;;;;;5054499;28;20013;-80
2023/11/23 05:37:28;;;;;;;23.23;7.70;;;;;;;;;;5054334;28;20404;-80
2023/11/23 05:39:53;;;;;;;18.60;8.80;;;;;;;;;;5054584;28;20025;-80
2023/11/23 05:42:18;;;;;;;20.02;8.23;;;;;;;;;;5054656;28;20017;-80
2023/11/23 05:44:44;;;;;;;20.20;8.77;;;;;;;;;;5054618;28;20032;-80
2023/11/23 05:47:10;;;;;;;25.17;8.25;;;;;;;;;;5054160;28;20037;-81
2023/11/23 05:49:36;;;;;;;20.13;9.43;;;;;;;;;;5054351;28;20059;-80
2023/11/23 05:52:01;;;;;;;19.98;8.52;;;;;;;;;;5053997;28;20079;-80
2023/11/23 05:54:26;;;;;;;21.45;7.90;;;;;;;;;;5054225;28;20048;-80
2023/11/23 05:56:51;;;;;;;20.05;8.23;;;;;;;;;;5054255;28;20066;-80
2023/11/23 05:59:17;;;;;;;21.27;8.68;;;;;;;;;;5054044;28;20013;-80
2023/11/23 06:01:42;;;;;;;19.17;7.72;;;;;;;;;;5054196;28;20025;-80
2023/11/23 06:04:07;;;;;;;17.65;7.90;;;;;;;;;;5053764;28;20021;-80
2023/11/23 06:06:32;;;;;;;1080.20;513.97;;;;;;;;;;5054325;28;20036;-80
2023/11/23 06:08:57;;;;;;;22.88;8.68;;;;;;;;;;5054054;28;20088;-79
2023/11/23 06:11:23;;;;;;;18.02;8.15;;;;;;;;;;5054029;28;20210;-80
2023/11/23 06:13:48;;;;;;;20.70;9.07;;;;;;;;;;5054055;28;20032;-80
2023/11/23 06:16:14;;;;;;;18.98;8.82;;;;;;;;;;5054050;28;20020;-80
2023/11/23 06:18:39;;;;;;;18.98;8.80;;;;;;;;;;5054883;28;20469;-81
2023/11/23 06:21:05;;;;;;;18.48;8.52;;;;;;;;;;5043910;28;20115;-80
2023/11/23 06:23:30;;;;;;;23.02;8.95;;;;;;;;;;5053781;28;20032;-80
2023/11/23 06:25:56;;;;;;;20.10;8.68;;;;;;;;;;5053512;28;20101;-79
2023/11/23 06:28:21;;;;;;;21.20;8.65;;;;;;;;;;5053758;28;20051;-80
2023/11/23 06:30:46;;;;;;;19.13;7.78;;;;;;;;;;5053856;28;20036;-80
2023/11/23 06:33:11;;;;;;;17.02;7.60;;;;;;;;;;5053283;28;20108;-80
2023/11/23 06:35:37;;;;;;;18.77;8.52;;;;;;;;;;5053634;28;20373;-80
2023/11/23 06:38:03;;;;;;;17.00;6.90;;;;;;;;;;5053457;28;20109;-80
2023/11/23 06:40:28;;;;;;;16.15;7.85;;;;;;;;;;5053429;28;20103;-80
2023/11/23 06:42:53;;;;;;;14.93;6.93;;;;;;;;;;5052853;28;20112;-80
2023/11/23 06:45:19;;;;;;;17.92;7.75;;;;;;;;;;5054628;28;20079;-80
2023/11/23 06:47:44;;;;;;;19.15;7.93;;;;;;;;;;5053058;28;20025;-80
2023/11/23 06:50:09;;;;;;;18.42;8.07;;;;;;;;;;5052233;28;20040;-80
2023/11/23 06:52:34;;;;;;;24.20;8.63;;;;;;;;;;5050777;28;20028;-81
2023/11/23 06:55:01;;;;;;;18.02;8.27;;;;;;;;;;5085167;28;20021;-81
2023/11/23 06:57:27;;;;;;;19.20;7.93;;;;;;;;;;5052301;28;20044;-81
2023/11/23 06:59:52;;;;;;;15.18;7.40;;;;;;;;;;5052767;28;20353;-80
2023/11/23 07:02:18;;;;;;;17.88;8.05;;;;;;;;;;5053664;28;20143;-81
2023/11/23 07:04:43;;;;;;;19.40;8.60;;;;;;;;;;5052767;28;20040;-80
2023/11/23 07:07:09;;;;;;;19.75;8.05;;;;;;;;;;5052225;28;20108;-79
2023/11/23 07:09:35;;;;;;;15.35;7.82;;;;;;;;;;5052852;28;20098;-81
2023/11/23 07:12:03;;;;;;;15.45;7.63;;;;;;;;;;5052817;28;20021;-80
2023/11/23 07:14:28;;;;;;;17.48;7.15;;;;;;;;;;5053890;28;20017;-80
2023/11/23 07:17:03;;;;;;;19.25;8.18;;;;;;;;;;5052471;28;20036;-81
2023/11/23 07:19:28;;;;;;;17.17;6.90;;;;;;;;;;5051984;28;20388;-80
2023/11/23 07:21:53;;;;;;;14.30;7.05;;;;;;;;;;5044192;28;20020;-81
2023/11/23 07:24:19;;;;;;;12.73;6.25;;;;;;;;;;5047725;28;20510;-81
2023/11/23 07:26:44;;;;;;;17.00;6.35;;;;;;;;;;5051806;28;20013;-81
2023/11/23 07:29:10;;;;;;;15.50;7.13;;;;;;;;;;5052318;28;20025;-81
2023/11/23 07:31:36;;;;;;;15.35;6.35;;;;;;;;;;5051620;28;20116;-80
2023/11/23 07:34:02;;;;;;;13.48;6.65;;;;;;;;;;5051881;28;20032;-81
2023/11/23 07:36:28;;;;;;;18.27;6.15;;;;;;;;;;5085326;28;20166;-80
2023/11/23 07:38:53;;;;;;;12.27;5.88;;;;;;;;;;5051607;28;20125;-80
2023/11/23 07:41:19;;;;;;;12.73;5.70;;;;;;;;;;5050357;28;20020;-80
2023/11/23 07:43:46;;;;;;;16.50;6.47;;;;;;;;;;5052026;28;20055;-80
2023/11/23 07:46:11;;;;;;;14.13;6.22;;;;;;;;;;5051798;28;20131;-81
2023/11/23 07:48:36;;;;;;;13.63;5.72;;;;;;;;;;5052541;28;20057;-80
2023/11/23 07:51:02;;;;;;;10.48;4.70;;;;;;;;;;5053258;28;20028;-80
2023/11/23 07:53:30;;;;;;;14.35;5.05;;;;;;;;;;5050870;28;20040;-81
2023/11/23 07:55:56;;;;;;;23.98;5.57;;;;;;;;;;5052166;28;20091;-81
2023/11/23 07:58:21;;;;;;;14.23;7.25;;;;;;;;;;5051823;28;20048;-82
2023/11/23 08:00:46;;;;;;;15.80;6.25;;;;;;;;;;5051358;28;20044;-81
2023/11/23 08:03:13;;;;;;;16.30;5.28;;;;;;;;;;5048552;28;20051;-81
2023/11/23 08:05:38;;;;;;;13.15;4.78;;;;;;;;;;5084694;28;20127;-80
2023/11/23 08:08:03;;;;;;;11.35;4.93;;;;;;;;;;5051721;28;20104;-81
2023/11/23 08:10:29;;;;;;;13.73;6.03;;;;;;;;;;5050837;28;20032;-81
2023/11/23 08:12:54;;;;;;;13.18;4.95;;;;;;;;;;5082813;28;20399;-81
2023/11/23 08:15:26;;;;;;;12.15;5.40;;;;;;;;;;5088020;27;20374;-81
2023/11/23 08:17:51;;;;;;;9.80;5.22;;;;;;;;;;5087804;28;20527;-82
2023/11/23 08:20:16;;;;;;;14.73;5.32;;;;;;;;;;5087536;28;20043;-81
2023/11/23 08:22:42;;;;;;;12.52;5.35;;;;;;;;;;5087138;28;20026;-82
2023/11/23 08:25:07;;;;;;;12.07;5.82;;;;;;;;;;5088122;28;20039;-81
2023/11/23 08:27:32;;;;;;;15.85;5.55;;;;;;;;;;5087995;28;20088;-81
2023/11/23 08:29:57;;;;;;;11.82;5.15;;;;;;;;;;5088100;28;20020;-81
2023/11/23 08:32:23;;;;;;;11.68;5.32;;;;;;;;;;5088051;28;20012;-82
2023/11/23 08:34:48;;;;;;;10.23;4.63;;;;;;;;;;5087452;28;20115;-82
2023/11/23 08:37:14;;;;;;;10.63;5.05;;;;;;;;;;5081795;28;20084;-81
2023/11/23 08:39:40;;;;;;;14.02;4.72;;;;;;;;;;5079826;28;20012;-82
2023/11/23 08:42:05;;;;;;;15.38;4.93;;;;;;;;;;5087949;28;20524;-81
2023/11/23 08:44:30;;;;;;;13.05;5.22;;;;;;;;;;5087556;28;20028;-81
2023/11/23 08:46:57;;;;;;;17.52;5.97;;;;;;;;;;5087602;28;20510;-81
2023/11/23 08:49:22;;;;;;;11.60;4.95;;;;;;;;;;5087706;28;20043;-82
2023/11/23 08:51:47;;;;;;;11.05;5.25;;;;;;;;;;5087666;28;20028;-82
2023/11/23 08:54:12;;;;;;;13.18;5.25;;;;;;;;;;5087510;28;20040;-81
2023/11/23 08:56:38;;;;;;;11.02;5.20;;;;;;;;;;5087640;28;20028;-81
2023/11/23 08:59:03;;;;;;;10.60;4.72;;;;;;;;;;5087292;28;20047;-81
2023/11/23 09:01:28;;;;;;;13.82;5.05;;;;;;;;;;5087476;28;20087;-81
2023/11/23 09:03:54;;;;;;;12.25;4.85;;;;;;;;;;5087338;28;20021;-81
2023/11/23 09:06:20;;;;;;;14.05;4.50;;;;;;;;;;5087137;28;20089;-80
2023/11/23 09:08:45;;;;;;;12.32;5.00;;;;;;;;;;5086767;28;20107;-79
2023/11/23 09:11:11;;;;;;;10.15;4.68;;;;;;;;;;5087058;28;20020;-80
2023/11/23 09:13:36;;;;;;;12.60;4.43;;;;;;;;;;5087072;28;20020;-80
2023/11/23 09:16:02;;;;;;;10.07;4.25;;;;;;;;;;5087223;28;20012;-80
2023/11/23 09:18:28;;;;;;;10.45;4.38;;;;;;;;;;5087086;28;20116;-80
2023/11/23 09:20:53;;;;;;;12.57;4.35;;;;;;;;;;5086701;28;20070;-80
2023/11/23 09:23:18;;;;;;;9.48;3.75;;;;;;;;;;5087061;28;20360;-80
2023/11/23 09:25:43;;;;;;;15.73;4.35;;;;;;;;;;5079550;28;20468;-80
2023/11/23 09:28:09;;;;;;;9.80;3.65;;;;;;;;;;5073488;28;20013;-80
2023/11/23 09:30:34;;;;;;;7.95;4.03;;;;;;;;;;5073456;28;20017;-81
2023/11/23 09:32:59;;;;;;;11.25;4.13;;;;;;;;;;5073225;28;20012;-80
2023/11/23 09:35:24;;;;;;;8.57;4.20;;;;;;;;;;5073199;28;20016;-80
2023/11/23 09:37:53;;;;;;;13.02;4.07;;;;;;;;;;5062184;28;20017;-80
2023/11/23 09:40:18;;;;;;;7.75;4.00;;;;;;;;;;5070296;28;20039;-80
2023/11/23 09:42:46;;;;;;;11.07;4.30;;;;;;;;;;5073108;28;20024;-80
2023/11/23 09:45:15;;;;;;;6.60;3.58;;;;;;;;;;5072967;28;20025;-80
2023/11/23 09:47:41;;;;;;;10.50;3.50;;;;;;;;;;5074494;28;20468;-80
2023/11/23 09:50:06;;;;;;;10.50;3.35;;;;;;;;;;5073088;28;20020;-81
2023/11/23 09:52:35;;;;;;;6.95;3.28;;;;;;;;;;5072951;28;20043;-81
2023/11/23 09:55:02;;;;;;;7.57;3.25;;;;;;;;;;5072652;28;20039;-81
2023/11/23 09:57:28;;;;;;;6.78;3.28;;;;;;;;;;5071795;28;20025;-82
2023/11/23 09:59:53;;;;;;;5.90;2.38;;;;;;;;;;5073464;28;20565;-81
2023/11/23 10:02:20;;;;;;;8.95;2.78;;;;;;;;;;5072431;28;20091;-81
2023/11/23 10:04:47;;;;;;;11.60;3.55;;;;;;;;;;5072872;28;20121;-81
2023/11/23 10:07:14;;;;;;;10.65;3.10;;;;;;;;;;5072506;28;20028;-81
2023/11/23 10:09:40;;;;;;;11.43;2.90;;;;;;;;;;5065754;28;20017;-81
2023/11/23 10:12:06;;;;;;;7.60;3.08;;;;;;;;;;5068156;28;20063;-82
2023/11/23 10:14:31;;;;;;;4.22;2.35;;;;;;;;;;5072178;28;20408;-81
2023/11/23 10:16:57;;;;;;;5.82;2.67;;;;;;;;;;5072500;28;20028;-81
2023/11/23 10:19:22;;;;;;;10.00;3.00;;;;;;;;;;5072309;28;20016;-81
2023/11/23 10:21:47;;;;;;;3.97;2.40;;;;;;;;;;5072300;28;20219;-81
2023/11/23 10:24:13;;;;;;;4.28;2.70;;;;;;;;;;5072081;28;20035;-81
2023/11/23 10:26:39;;;;;;;6.50;2.65;;;;;;;;;;5072283;28;20143;-81
2023/11/23 10:29:05;;;;;;;8.27;2.60;;;;;;;;;;5073695;28;20027;-81
2023/11/23 10:31:30;;;;;;;9.07;2.65;;;;;;;;;;5071915;28;20460;-81
2023/11/23 10:33:56;;;;;;;10.57;2.35;;;;;;;;;;5071961;28;20024;-82
2023/11/23 10:36:23;;;;;;;5.97;2.03;;;;;;;;;;5071774;28;20035;-81
2023/11/23 10:38:49;;;;;;;7.15;2.90;;;;;;;;;;5068911;28;20635;-81
2023/11/23 10:41:14;;;;;;;8.20;2.65;;;;;;;;;;5071970;28;20067;-81
2023/11/23 10:43:41;;;;;;;9.13;2.40;;;;;;;;;;5071954;28;20032;-81
2023/11/23 10:46:11;;;;;;;6.65;2.95;;;;;;;;;;5071982;28;20044;-81
2023/11/23 10:48:37;;;;;;;9.60;2.30;;;;;;;;;;5071675;28;20051;-81
2023/11/23 10:51:03;;;;;;;7.13;2.22;;;;;;;;;;5071881;28;20044;-82
2023/11/23 10:53:29;;;;;;;6.80;2.10;;;;;;;;;;5071591;28;20060;-82
2023/11/23 10:55:55;;;;;;;8.93;2.25;;;;;;;;;;5071577;28;20051;-81
2023/11/23 10:58:21;;;;;;;6.63;2.25;;;;;;;;;;5071810;28;20052;-81
2023/11/23 11:00:46;;;;;;;6.95;1.90;;;;;;;;;;5071657;28;20074;-82
2023/11/23 11:03:12;;;;;;;5.95;1.95;;;;;;;;;;5072983;28;20091;-81
2023/11/23 11:05:45;;;;;;;8.95;1.50;;;;;;;;;;5071504;28;20020;-81
2023/11/23 11:08:10;;;;;;;;;;;;;;;;;;5071914;28;20472;-81
2023/11/23 11:10:40;;;;;;;7.25;2.53;;;;;;;;;;5071429;28;19930;-81
2023/11/23 11:13:15;;;;;;;2.42;1.45;;;;;;;;;;5071520;28;20013;-82
2023/11/23 11:15:53;;;;;;;2.75;1.73;;;;;;;;;;5072467;28;20085;-82
2023/11/23 11:18:22;;;;;;;4.25;1.38;;;;;;;;;;5072830;28;20021;-81
2023/11/23 11:21:00;;;;;;;5.53;2.10;;;;;;;;;;5068505;28;20075;-81
2023/11/23 11:23:41;;;;;;;6.30;2.42;;;;;;;;;;5072228;28;20058;-81
2023/11/23 11:26:09;;;;;;;5.05;1.92;;;;;;;;;;5072389;28;20020;-81
2023/11/23 11:28:35;;;;;;;7.05;2.08;;;;;;;;;;5071415;28;20028;-81
2023/11/23 11:31:14;;;;;;;8.15;1.77;;;;;;;;;;5070974;28;20183;-81
2023/11/23 11:33:39;;;;;;;4.10;1.63;;;;;;;;;;5071080;28;20020;-81
2023/11/23 11:36:09;;;;;;;8.18;1.75;;;;;;;;;;5070822;28;20031;-80
2023/11/23 11:38:39;;;;;;;5.95;1.80;;;;;;;;;;5058264;28;20052;-81
2023/11/23 11:41:06;;;;;;;5.15;1.48;;;;;;;;;;5070952;28;20425;-82
2023/11/23 11:43:33;;;;;;;5.22;1.30;;;;;;;;;;5070897;28;20074;-81
2023/11/23 11:45:58;;;;;;;1.67;0.88;;;;;;;;;;5071007;28;20528;-81
2023/11/23 11:48:23;;;;;;;3.53;1.45;;;;;;;;;;5070654;28;20020;-81
2023/11/23 11:50:58;;;;;;;2.67;1.42;;;;;;;;;;5070607;28;20024;-81
2023/11/23 11:53:23;;;;;;;3.28;1.50;;;;;;;;;;5070740;28;20107;-81
2023/11/23 11:55:50;;;;;;;3.30;1.50;;;;;;;;;;5070812;28;20111;-82
2023/11/23 11:58:16;;;;;;;7.20;1.48;;;;;;;;;;5071025;28;20364;-81
2023/11/23 12:00:44;;;;;;;6.47;1.83;;;;;;;;;;5070700;28;20009;-81
2023/11/23 12:03:09;;;;;;;6.50;1.33;;;;;;;;;;5070801;28;20054;-82
2023/11/23 12:05:34;;;;;;;5.57;1.50;;;;;;;;;;5070538;28;20121;-80
2023/11/23 12:08:00;;;;;;;5.22;1.70;;;;;;;;;;5070725;28;20031;-81
2023/11/23 12:10:35;;;;;;;5.30;1.58;;;;;;;;;;5070812;28;20020;-81
2023/11/23 12:13:00;;;;;;;5.70;1.88;;;;;;;;;;5070601;28;20112;-82
2023/11/23 12:15:25;;;;;;;10.30;1.85;;;;;;;;;;5070571;28;20111;-81
2023/11/23 12:17:50;;;;;;;5.40;1.70;;;;;;;;;;5070527;28;20009;-81
2023/11/23 12:20:17;;;;;;;5.05;1.90;;;;;;;;;;5069930;28;20020;-81
2023/11/23 12:22:44;;;;;;;4.90;1.52;;;;;;;;;;5070504;28;20016;-80
2023/11/23 12:25:10;;;;;;;2.95;1.40;;;;;;;;;;5070722;28;20056;-81
2023/11/23 12:27:35;;;;;;;5.90;1.67;;;;;;;;;;5070396;28;20522;-80
2023/11/23 12:30:00;;;;;;;4.28;1.83;;;;;;;;;;5070662;28;20058;-81
2023/11/23 12:32:25;;;;;;;5.93;1.80;;;;;;;;;;5070433;28;20384;-81
2023/11/23 12:34:51;;;;;;;3.75;1.63;;;;;;;;;;5070163;28;20013;-81
2023/11/23 12:37:16;;;;;;;5.22;1.77;;;;;;;;;;5064032;28;20017;-81
2023/11/23 12:39:41;;;;;;;6.60;1.75;;;;;;;;;;5066968;28;20040;-81
2023/11/23 12:42:06;;;;;;;8.00;2.05;;;;;;;;;;5071613;28;20360;-80
2023/11/23 12:44:35;;;;;;;6.22;1.98;;;;;;;;;;5070408;28;20039;-81
2023/11/23 12:47:00;;;;;;;5.25;1.90;;;;;;;;;;5070274;28;20436;-81
2023/11/23 12:49:25;;;;;;;8.15;2.38;;;;;;;;;;5070389;28;20051;-81
2023/11/23 12:51:50;;;;;;;9.95;1.70;;;;;;;;;;5070033;28;20041;-81
2023/11/23 12:54:16;;;;;;;3.55;1.55;;;;;;;;;;5070227;28;20020;-81
2023/11/23 12:56:41;;;;;;;4.47;1.83;;;;;;;;;;5070964;28;20020;-81
2023/11/23 12:59:06;;;;;;;7.60;2.28;;;;;;;;;;5070058;28;20019;-81
2023/11/23 13:01:34;;;;;;;3.42;1.52;;;;;;;;;;5072779;28;20020;-81
2023/11/23 13:04:03;;;;;;;4.68;1.50;;;;;;;;;;5073767;28;20024;-82
2023/11/23 13:06:29;;;;;;;4.05;2.10;;;;;;;;;;5073773;28;20032;-81
2023/11/23 13:08:55;;;;;;;6.75;1.73;;;;;;;;;;5073550;28;20027;-80
2023/11/23 13:11:20;;;;;;;7.75;2.13;;;;;;;;;;5066972;28;20029;-81
2023/11/23 13:13:47;;;;;;;5.38;1.90;;;;;;;;;;5066335;28;20032;-81
2023/11/23 13:16:14;;;;;;;4.68;1.90;;;;;;;;;;5073661;28;20024;-81
2023/11/23 13:18:39;;;;;;;6.25;1.88;;;;;;;;;;5073752;28;20037;-81
2023/11/23 13:21:05;;;;;;;8.07;1.77;;;;;;;;;;5062051;28;20017;-81
2023/11/23 13:23:30;;;;;;;8.32;1.80;;;;;;;;;;5062302;28;20035;-81
2023/11/23 13:25:59;;;;;;;6.68;1.65;;;;;;;;;;5073437;28;20120;-80
2023/11/23 13:28:26;;;;;;;4.70;1.92;;;;;;;;;;5073605;28;20055;-81
2023/11/23 13:30:51;;;;;;;8.13;1.80;;;;;;;;;;5073502;28;20024;-80
2023/11/23 13:33:22;;;;;;;6.20;2.00;;;;;;;;;;5073175;28;20028;-81
2023/11/23 13:35:47;;;;;;;4.22;1.80;;;;;;;;;;5073341;28;20115;-81
2023/11/23 13:38:12;;;;;;;4.97;1.80;;;;;;;;;;5074371;28;20048;-79
2023/11/23 13:40:38;;;;;;;3.90;1.70;;;;;;;;;;5073362;28;20024;-81
2023/11/23 13:43:03;;;;;;;5.90;1.70;;;;;;;;;;5073186;28;20016;-81
2023/11/23 13:45:29;;;;;;;7.63;2.03;;;;;;;;;;5073090;28;20424;-81
2023/11/23 13:47:54;;;;;;;5.13;1.83;;;;;;;;;;5073357;28;20456;-81
2023/11/23 13:50:20;;;;;;;6.28;1.80;;;;;;;;;;5072989;28;20036;-80
2023/11/23 13:52:45;;;;;;;9.57;2.58;;;;;;;;;;5072812;28;20024;-82
2023/11/23 13:55:10;;;;;;;4.20;2.00;;;;;;;;;;5072955;28;20028;-81
2023/11/23 13:57:36;;;;;;;4.95;1.77;;;;;;;;;;5072891;28;20012;-81
2023/11/23 14:00:11;;;;;;;5.95;2.15;;;;;;;;;;5072772;28;20027;-81
2023/11/23 14:02:38;;;;;;;5.45;2.58;;;;;;;;;;5072798;28;20391;-81
2023/11/23 14:05:05;;;;;;;7.68;2.05;;;;;;;;;;5072878;28;20392;-80
2023/11/23 14:07:30;;;;;;;8.45;1.98;;;;;;;;;;5073731;28;20093;-81
2023/11/23 14:09:56;;;;;;;7.63;2.00;;;;;;;;;;5072693;28;20033;-81
2023/11/23 14:12:22;;;;;;;4.47;2.50;;;;;;;;;;5072466;28;20058;-81
2023/11/23 14:14:48;;;;;;;5.45;2.25;;;;;;;;;;5072469;28;20020;-81
2023/11/23 14:17:13;;;;;;;10.77;2.40;;;;;;;;;;5072642;28;20013;-81
2023/11/23 14:19:39;;;;;;;9.15;2.50;;;;;;;;;;5071621;28;20035;-81
2023/11/23 14:22:04;;;;;;;7.28;2.25;;;;;;;;;;5063611;28;20116;-80
2023/11/23 14:24:29;;;;;;;6.05;1.80;;;;;;;;;;5072494;28;20017;-81